createdAt,value
2022-11-15T00:00:49.521Z,35.88
2022-11-15T00:03:21.103Z,39.33
2022-11-15T00:05:49.691Z,37.00
2022-11-15T00:08:17.736Z,39.25
2022-11-15T00:10:55.755Z,35.17
2022-11-15T00:13:23.393Z,36.25
2022-11-15T00:15:51.485Z,36.38
2022-11-15T00:18:23.718Z,37.70
2022-11-15T00:20:51.726Z,30.15
2022-11-15T00:23:19.337Z,29.10
2022-11-15T00:25:47.344Z,32.53
2022-11-15T00:28:15.508Z,28.83
2022-11-15T00:30:43.488Z,27.58
2022-11-15T00:33:11.278Z,30.83
2022-11-15T00:35:40.598Z,40.42
2022-11-15T00:38:11.556Z,34.80
2022-11-15T00:40:39.119Z,46.50
2022-11-15T00:43:06.705Z,39.83
2022-11-15T00:45:34.955Z,35.17
2022-11-15T00:48:02.554Z,37.03
2022-11-15T00:50:30.392Z,31.83
2022-11-15T00:52:59.738Z,32.85
2022-11-15T00:55:27.514Z,34.67
2022-11-15T00:57:55.637Z,33.97
2022-11-15T01:00:23.609Z,32.63
2022-11-15T01:02:51.624Z,36.17
2022-11-15T01:05:19.282Z,34.75
2022-11-15T01:07:47.353Z,34.30
2022-11-15T01:10:16.449Z,41.08
2022-11-15T01:12:44.217Z,39.20
2022-11-15T01:15:12.643Z,35.15
2022-11-15T01:17:40.285Z,36.22
2022-11-15T01:20:09.055Z,34.95
2022-11-15T01:22:39.308Z,29.73
2022-11-15T01:25:07.298Z,31.80
2022-11-15T01:27:37.755Z,30.20
2022-11-15T01:30:07.164Z,30.15
2022-11-15T01:32:36.482Z,27.20
2022-11-15T01:35:04.878Z,26.58
2022-11-15T01:37:33.198Z,28.95
2022-11-15T01:40:01.052Z,31.17
2022-11-15T01:42:28.879Z,34.75
2022-11-15T01:44:58.386Z,33.13
2022-11-15T01:47:29.392Z,33.83
2022-11-15T01:50:01.706Z,34.80
2022-11-15T01:52:34.610Z,34.20
2022-11-15T01:57:32.794Z,36.63
2022-11-15T02:00:04.053Z,37.92
2022-11-15T02:02:33.774Z,32.08
2022-11-15T02:05:01.332Z,30.33
2022-11-15T02:07:31.838Z,34.70
2022-11-15T02:10:03.633Z,30.55
2022-11-15T02:12:32.584Z,34.80
2022-11-15T02:15:07.969Z,31.80
2022-11-15T02:18:00.530Z,27.90
2022-11-15T02:20:44.825Z,25.98
2022-11-15T02:24:08.599Z,26.48
2022-11-15T02:27:08.057Z,34.05
2022-11-15T02:29:58.056Z,28.73
2022-11-15T02:32:36.661Z,27.20
2022-11-15T02:35:14.201Z,30.88
2022-11-15T02:37:47.564Z,35.38
2022-11-15T02:40:22.358Z,33.92
2022-11-15T02:42:54.228Z,31.77
2022-11-15T02:45:31.578Z,31.25
2022-11-15T02:48:05.119Z,33.28
2022-11-15T02:50:34.242Z,38.13
2022-11-15T02:53:01.960Z,36.42
2022-11-15T02:55:31.934Z,35.13
2022-11-15T02:58:18.331Z,45.10
2022-11-15T03:00:53.241Z,34.05
2022-11-15T03:03:47.789Z,45.33
2022-11-15T03:06:27.905Z,42.05
2022-11-15T03:09:03.736Z,41.40
2022-11-15T03:11:38.104Z,41.80
2022-11-15T03:14:19.917Z,43.35
2022-11-15T03:16:56.020Z,46.50
2022-11-15T03:19:31.196Z,46.33
2022-11-15T03:22:02.445Z,50.63
2022-11-15T03:24:34.372Z,50.03
2022-11-15T03:27:04.494Z,51.33
2022-11-15T03:29:36.911Z,56.80
2022-11-15T03:32:09.154Z,48.13
2022-11-15T03:34:43.891Z,50.90
2022-11-15T03:37:15.400Z,56.20
2022-11-15T03:42:22.779Z,53.05
2022-11-15T03:44:55.998Z,49.63
2022-11-15T03:47:29.107Z,52.90
2022-11-15T03:50:01.083Z,66.70
2022-11-15T03:52:34.403Z,71.05
2022-11-15T03:55:04.739Z,59.17
2022-11-15T03:57:34.385Z,45.42
2022-11-15T04:00:01.992Z,46.38
2022-11-15T04:02:29.681Z,46.05
2022-11-15T04:04:59.095Z,52.85
2022-11-15T04:07:27.334Z,53.33
2022-11-15T04:09:55.600Z,62.42
2022-11-15T04:12:25.111Z,65.07
2022-11-15T04:14:53.535Z,61.88
2022-11-15T04:17:21.137Z,57.65
2022-11-15T04:19:50.439Z,69.22
2022-11-15T04:22:19.596Z,68.97
2022-11-15T04:24:47.274Z,76.97
2022-11-15T04:27:15.039Z,74.45
2022-11-15T04:29:42.881Z,67.82
2022-11-15T04:32:10.534Z,66.68
2022-11-15T04:34:38.680Z,59.25
2022-11-15T04:37:06.234Z,61.30
2022-11-15T04:39:35.484Z,64.30
2022-11-15T04:42:03.285Z,57.90
2022-11-15T04:44:31.303Z,50.58
2022-11-15T04:46:58.962Z,50.35
2022-11-15T04:49:26.754Z,52.63
2022-11-15T04:51:54.632Z,56.35
2022-11-15T04:54:22.414Z,48.95
2022-11-15T04:56:51.821Z,49.85
2022-11-15T04:59:19.632Z,56.97
2022-11-15T05:01:47.306Z,55.17
2022-11-15T05:04:14.988Z,54.13
2022-11-15T05:06:42.680Z,57.63
2022-11-15T05:09:10.974Z,54.60
2022-11-15T05:11:38.755Z,59.95
2022-11-15T05:14:07.759Z,54.15
2022-11-15T05:16:35.918Z,55.03
2022-11-15T05:21:35.757Z,57.97
2022-11-15T05:24:04.689Z,68.75
2022-11-15T05:26:33.401Z,72.53
2022-11-15T05:29:00.996Z,71.97
2022-11-15T05:31:30.339Z,65.90
2022-11-15T05:34:01.998Z,59.10
2022-11-15T05:36:34.627Z,77.60
2022-11-15T05:39:03.684Z,55.15
2022-11-15T05:41:35.253Z,61.92
2022-11-15T05:46:35.235Z,62.67
2022-11-15T05:49:03.371Z,95.15
2022-11-15T05:51:31.974Z,64.95
2022-11-15T05:54:01.343Z,76.78
2022-11-15T05:56:30.192Z,105.35
2022-11-15T05:59:00.037Z,72.30
2022-11-15T06:01:28.687Z,122.53
2022-11-15T06:03:57.651Z,106.82
2022-11-15T06:06:25.311Z,97.28
2022-11-15T06:08:52.842Z,102.43
2022-11-15T06:11:21.139Z,62.10
2022-11-15T06:13:50.335Z,143.90
2022-11-15T06:16:18.305Z,126.18
2022-11-15T06:18:45.884Z,72.22
2022-11-15T06:21:24.802Z,93.68
2022-11-15T06:23:52.597Z,136.40
2022-11-15T06:26:20.702Z,73.80
2022-11-15T06:28:49.837Z,88.32
2022-11-15T06:31:17.454Z,130.13
2022-11-15T06:33:45.102Z,102.20
2022-11-15T06:36:17.540Z,102.50
2022-11-15T06:38:49.325Z,104.05
2022-11-15T06:41:17.020Z,92.70
2022-11-15T06:43:45.026Z,100.88
2022-11-15T06:46:12.798Z,94.05
2022-11-15T06:48:42.245Z,102.28
2022-11-15T06:51:09.900Z,121.13
2022-11-15T06:53:38.102Z,118.97
2022-11-15T06:56:08.631Z,87.53
2022-11-15T06:58:37.655Z,108.85
2022-11-15T07:01:08.777Z,123.85
2022-11-15T07:03:38.472Z,120.68
2022-11-15T07:06:08.012Z,119.32
2022-11-15T07:08:37.013Z,136.13
2022-11-15T07:11:07.947Z,136.55
2022-11-15T07:13:36.835Z,145.45
2022-11-15T07:16:06.696Z,113.82
2022-11-15T07:18:35.102Z,134.63
2022-11-15T07:21:03.868Z,118.97
2022-11-15T07:23:32.599Z,111.72
2022-11-15T07:26:01.299Z,113.45
2022-11-15T07:28:30.792Z,113.32
2022-11-15T07:30:59.277Z,115.30
2022-11-15T07:33:26.825Z,112.22
2022-11-15T07:35:54.491Z,128.40
2022-11-15T07:38:22.275Z,101.18
2022-11-15T07:40:57.660Z,118.60
2022-11-15T07:43:26.197Z,123.00
2022-11-15T07:45:59.131Z,112.90
2022-11-15T07:48:42.183Z,113.00
2022-11-15T07:51:14.192Z,121.45
2022-11-15T07:53:42.599Z,119.65
2022-11-15T07:56:11.058Z,121.97
2022-11-15T07:58:38.706Z,116.13
2022-11-15T08:01:09.450Z,114.47
2022-11-15T08:03:37.512Z,109.07
2022-11-15T08:06:05.886Z,105.22
2022-11-15T08:08:33.712Z,101.18
2022-11-15T08:11:05.018Z,92.15
2022-11-15T08:13:33.944Z,85.88
2022-11-15T08:16:02.598Z,85.57
2022-11-15T08:18:31.904Z,101.90
2022-11-15T08:21:01.055Z,78.60
2022-11-15T08:23:29.043Z,82.90
2022-11-15T08:26:01.620Z,82.53
2022-11-15T08:28:29.968Z,77.50
2022-11-15T08:30:59.091Z,76.80
2022-11-15T08:33:27.403Z,83.00
2022-11-15T08:35:59.206Z,82.07
2022-11-15T08:38:27.248Z,71.57
2022-11-15T08:41:02.925Z,75.75
2022-11-15T08:43:30.998Z,67.15
2022-11-15T08:46:01.018Z,72.53
2022-11-15T08:48:29.015Z,72.07
2022-11-15T08:50:58.640Z,67.40
2022-11-15T08:53:26.215Z,65.55
2022-11-15T08:55:55.092Z,76.05
2022-11-15T08:58:22.841Z,79.03
2022-11-15T09:00:52.080Z,71.28
2022-11-15T09:03:20.412Z,86.90
2022-11-15T09:05:49.732Z,88.50
2022-11-15T09:08:45.964Z,80.32
2022-11-15T09:11:08.156Z,75.18
2022-11-15T09:13:35.990Z,84.78
2022-11-15T09:16:05.977Z,83.72
2022-11-15T09:18:34.654Z,74.80
2022-11-15T09:21:04.406Z,68.93
2022-11-15T09:23:34.393Z,70.50
2022-11-15T09:26:03.436Z,58.90
2022-11-15T09:28:32.328Z,74.32
2022-11-15T09:31:01.450Z,65.07
2022-11-15T09:33:30.857Z,73.40
2022-11-15T09:36:01.797Z,68.53
2022-11-15T09:38:30.437Z,65.07
2022-11-15T09:41:26.963Z,70.38
2022-11-15T09:44:08.085Z,74.18
2022-11-15T09:46:46.933Z,73.85
2022-11-15T09:49:16.979Z,75.97
2022-11-15T09:51:47.175Z,78.15
2022-11-15T09:54:52.788Z,70.65
2022-11-15T09:57:16.457Z,63.47
2022-11-15T10:00:12.415Z,79.85
2022-11-15T10:02:59.617Z,57.13
2022-11-15T10:08:03.807Z,60.22
2022-11-15T10:10:39.432Z,60.20
2022-11-15T10:13:14.531Z,66.75
2022-11-15T10:15:44.689Z,61.33
2022-11-15T10:18:19.862Z,48.95
2022-11-15T10:20:50.579Z,57.75
2022-11-15T10:23:21.367Z,53.95
2022-11-15T10:25:51.653Z,47.05
2022-11-15T10:28:26.735Z,45.13
2022-11-15T10:30:56.652Z,38.03
2022-11-15T10:33:32.027Z,43.13
2022-11-15T10:36:18.731Z,44.45
2022-11-15T10:38:58.242Z,46.47
2022-11-15T10:41:38.852Z,42.72
2022-11-15T10:44:24.012Z,40.92
2022-11-15T10:47:38.877Z,48.38
2022-11-15T10:50:27.412Z,45.22
2022-11-15T10:52:55.582Z,41.50
2022-11-15T10:55:27.568Z,44.78
2022-11-15T10:58:00.150Z,48.53
2022-11-15T11:00:33.196Z,42.90
2022-11-15T11:03:03.604Z,45.35
2022-11-15T11:05:38.150Z,44.97
2022-11-15T11:08:22.926Z,39.75
2022-11-15T11:11:00.249Z,32.10
2022-11-15T11:13:31.825Z,29.13
2022-11-15T11:16:25.801Z,27.60
2022-11-15T11:19:04.850Z,29.83
2022-11-15T11:21:46.495Z,27.58
2022-11-15T11:24:22.961Z,26.77
2022-11-15T11:27:14.493Z,20.25
2022-11-15T11:29:59.820Z,18.55
2022-11-15T11:32:41.527Z,14.82
2022-11-15T11:35:15.101Z,15.35
2022-11-15T11:37:50.488Z,16.45
2022-11-15T11:40:28.802Z,14.23
2022-11-15T11:43:03.601Z,11.80
2022-11-15T11:45:54.949Z,9.98
2022-11-15T11:48:40.254Z,14.57
2022-11-15T11:51:14.041Z,13.98
2022-11-15T11:53:53.364Z,13.98
2022-11-15T11:56:29.798Z,14.60
2022-11-15T11:59:07.013Z,13.10
2022-11-15T12:01:42.034Z,12.48
2022-11-15T12:04:20.115Z,12.75
2022-11-15T12:06:53.109Z,18.05
2022-11-15T12:09:27.827Z,11.63
2022-11-15T12:12:03.803Z,12.73
2022-11-15T12:14:37.397Z,11.70
2022-11-15T12:17:05.312Z,14.13
2022-11-15T12:19:36.518Z,13.93
2022-11-15T12:22:10.138Z,13.90
2022-11-15T12:24:44.129Z,14.57
2022-11-15T12:27:24.953Z,13.55
2022-11-15T12:29:59.365Z,17.00
2022-11-15T12:32:31.626Z,13.43
2022-11-15T12:35:02.936Z,15.15
2022-11-15T12:40:35.908Z,12.45
2022-11-15T12:43:26.507Z,15.15
2022-11-15T12:45:54.321Z,11.40
2022-11-15T12:48:50.426Z,12.75
2022-11-15T12:51:21.657Z,14.10
2022-11-15T12:53:51.416Z,13.02
2022-11-15T12:56:23.642Z,12.43
2022-11-15T12:58:57.934Z,14.88
2022-11-15T13:02:00.817Z,11.88
2022-11-15T13:04:31.102Z,11.63
2022-11-15T13:07:02.996Z,11.82
2022-11-15T13:10:01.052Z,15.93
2022-11-15T13:12:55.306Z,12.48
2022-11-15T13:15:55.535Z,13.88
2022-11-15T13:18:33.755Z,16.55
2022-11-15T13:21:04.885Z,16.30
2022-11-15T13:23:34.964Z,15.80
2022-11-15T13:26:13.838Z,14.30
2022-11-15T13:28:46.144Z,16.65
2022-11-15T13:31:25.762Z,12.77
2022-11-15T13:33:56.078Z,14.18
2022-11-15T13:36:26.791Z,13.13
2022-11-15T13:39:01.955Z,14.55
2022-11-15T13:41:32.251Z,12.35
2022-11-15T13:44:01.512Z,12.82
2022-11-15T13:46:30.298Z,16.23
2022-11-15T13:48:59.229Z,15.68
2022-11-15T13:51:38.250Z,16.17
2022-11-15T13:54:16.082Z,19.25
2022-11-15T13:56:47.875Z,25.92
2022-11-15T13:59:22.255Z,23.27
2022-11-15T14:01:51.669Z,22.17
2022-11-15T14:04:24.821Z,24.08
2022-11-15T14:06:56.259Z,29.75
2022-11-15T14:09:37.628Z,29.65
2022-11-15T14:12:27.597Z,47.92
2022-11-15T14:14:55.407Z,56.13
2022-11-15T14:17:37.944Z,57.13
2022-11-15T14:20:28.920Z,49.20
2022-11-15T14:22:58.909Z,47.70
2022-11-15T14:25:29.824Z,46.20
2022-11-15T14:28:31.766Z,42.60
2022-11-15T14:31:01.372Z,42.47
2022-11-15T14:33:31.386Z,114.85
2022-11-15T14:36:05.961Z,104.90
2022-11-15T14:38:35.007Z,127.50
2022-11-15T14:41:04.430Z,114.80
2022-11-15T14:43:32.268Z,217.20
2022-11-15T14:46:02.331Z,271.17
2022-11-15T14:48:30.606Z,209.07
2022-11-15T14:50:58.978Z,55.10
2022-11-15T14:53:26.617Z,45.67
2022-11-15T14:55:54.546Z,36.83
2022-11-15T14:58:24.138Z,44.53
2022-11-15T15:00:51.934Z,44.17
2022-11-15T15:03:19.774Z,112.38
2022-11-15T15:05:47.923Z,186.73
2022-11-15T15:08:15.604Z,192.27
2022-11-15T15:10:44.860Z,87.28
2022-11-15T15:13:18.072Z,63.55
2022-11-15T15:15:48.176Z,53.47
2022-11-15T15:18:16.509Z,50.42
2022-11-15T15:20:46.322Z,50.03
2022-11-15T15:23:19.168Z,48.58
2022-11-15T15:25:48.059Z,71.30
2022-11-15T15:28:15.901Z,100.05
2022-11-15T15:30:43.462Z,116.40
2022-11-15T15:33:12.826Z,241.88
2022-11-15T15:35:40.652Z,173.25
2022-11-15T15:38:12.423Z,152.18
2022-11-15T15:40:40.434Z,144.05
2022-11-15T15:43:08.232Z,149.85
2022-11-15T15:45:38.818Z,151.27
2022-11-15T15:48:06.875Z,173.10
2022-11-15T15:50:36.263Z,139.85
2022-11-15T15:53:05.070Z,131.27
2022-11-15T15:55:33.665Z,111.75
2022-11-15T15:58:01.425Z,97.43
2022-11-15T16:00:29.479Z,71.75
2022-11-15T16:03:00.956Z,76.72
2022-11-15T16:05:28.550Z,63.00
2022-11-15T16:07:57.559Z,70.85
2022-11-15T16:10:30.992Z,65.30
2022-11-15T16:13:01.152Z,107.97
2022-11-15T16:15:32.161Z,97.78
2022-11-15T16:18:01.489Z,118.30
2022-11-15T16:20:33.324Z,159.25
2022-11-15T16:23:08.789Z,131.02
2022-11-15T16:25:56.576Z,95.00
2022-11-15T16:28:26.318Z,112.05
2022-11-15T16:31:01.840Z,99.05
2022-11-15T16:33:29.886Z,110.82
2022-11-15T16:35:57.892Z,107.85
2022-11-15T16:38:27.103Z,125.03
2022-11-15T16:40:54.631Z,142.30
2022-11-15T16:43:22.525Z,148.80
2022-11-15T16:45:50.880Z,149.75
2022-11-15T16:48:23.111Z,115.20
2022-11-15T16:50:54.967Z,127.55
2022-11-15T16:53:23.080Z,115.85
2022-11-15T16:55:52.090Z,111.22
2022-11-15T16:58:19.831Z,89.82
2022-11-15T17:00:51.777Z,108.53
2022-11-15T17:03:19.901Z,81.20
2022-11-15T17:05:47.569Z,90.97
2022-11-15T17:08:15.240Z,91.18
2022-11-15T17:10:43.112Z,116.43
2022-11-15T17:13:14.455Z,119.13
2022-11-15T17:15:42.686Z,98.95
2022-11-15T17:18:12.511Z,88.15
2022-11-15T17:20:40.897Z,78.97
2022-11-15T17:23:12.643Z,88.88
2022-11-15T17:28:07.648Z,101.63
2022-11-15T17:30:37.116Z,102.18
2022-11-15T17:33:05.206Z,98.78
2022-11-15T17:35:32.817Z,85.18
2022-11-15T17:38:01.259Z,103.13
2022-11-15T17:40:29.206Z,91.38
2022-11-15T17:42:56.779Z,87.15
2022-11-15T17:45:24.500Z,81.10
2022-11-15T17:47:53.502Z,80.07
2022-11-15T17:50:21.139Z,82.18
2022-11-15T17:52:49.698Z,74.63
2022-11-15T17:55:17.501Z,72.57
2022-11-15T17:57:45.961Z,76.82
2022-11-15T18:00:14.798Z,67.90
2022-11-15T18:02:42.394Z,67.97
2022-11-15T18:05:11.431Z,67.78
2022-11-15T18:07:39.301Z,69.07
2022-11-15T18:10:08.149Z,67.47
2022-11-15T18:12:36.070Z,57.20
2022-11-15T18:15:04.439Z,51.97
2022-11-15T18:17:32.070Z,52.92
2022-11-15T18:20:00.281Z,50.47
2022-11-15T18:22:29.557Z,50.42
2022-11-15T18:24:57.264Z,50.28
2022-11-15T18:27:24.983Z,48.95
2022-11-15T18:29:53.060Z,50.30
2022-11-15T18:32:21.430Z,54.83
2022-11-15T18:34:49.123Z,52.13
2022-11-15T18:37:17.164Z,48.35
2022-11-15T18:39:51.036Z,55.95
2022-11-15T18:42:20.377Z,55.90
2022-11-15T18:44:48.122Z,49.00
2022-11-15T18:47:15.792Z,46.50
2022-11-15T18:49:44.149Z,49.78
2022-11-15T18:52:11.728Z,50.15
2022-11-15T18:54:39.240Z,44.47
2022-11-15T18:57:08.845Z,41.08
2022-11-15T18:59:36.499Z,49.42
2022-11-15T19:02:04.079Z,46.17
2022-11-15T19:04:32.711Z,92.43
2022-11-15T19:07:00.407Z,127.82
2022-11-15T19:09:28.078Z,131.70
2022-11-15T19:11:56.420Z,132.35
2022-11-15T19:14:30.637Z,129.27
2022-11-15T19:16:58.870Z,135.05
2022-11-15T19:19:27.701Z,132.68
2022-11-15T19:21:55.534Z,129.35
2022-11-15T19:24:23.309Z,135.10
2022-11-15T19:26:51.053Z,106.43
2022-11-15T19:29:18.665Z,110.82
2022-11-15T19:31:47.900Z,108.03
2022-11-15T19:34:15.590Z,72.50
2022-11-15T19:36:45.753Z,78.35
2022-11-15T19:39:15.205Z,64.82
2022-11-15T19:41:43.896Z,58.65
2022-11-15T19:44:12.575Z,53.58
2022-11-15T19:46:41.097Z,59.13
2022-11-15T19:49:11.383Z,55.13
2022-11-15T19:51:40.157Z,53.17
2022-11-15T19:54:08.224Z,47.45
2022-11-15T19:56:37.048Z,37.17
2022-11-15T19:59:04.920Z,29.25
2022-11-15T20:01:34.739Z,33.22
2022-11-15T20:04:02.487Z,30.67
2022-11-15T20:06:33.565Z,33.22
2022-11-15T20:09:01.521Z,35.50
2022-11-15T20:11:31.791Z,30.58
2022-11-15T20:14:00.854Z,32.35
2022-11-15T20:16:30.145Z,26.52
2022-11-15T20:18:57.918Z,27.30
2022-11-15T20:21:26.056Z,29.52
2022-11-15T20:23:55.271Z,30.67
2022-11-15T20:26:23.007Z,27.92
2022-11-15T20:28:50.992Z,26.67
2022-11-15T20:31:18.854Z,33.78
2022-11-15T20:33:46.981Z,26.10
2022-11-15T20:36:15.580Z,26.65
2022-11-15T20:38:45.445Z,30.30
2022-11-15T20:41:14.854Z,27.65
2022-11-15T20:43:42.593Z,27.38
2022-11-15T20:46:10.852Z,29.63
2022-11-15T20:48:39.274Z,30.77
2022-11-15T20:51:09.918Z,30.40
2022-11-15T20:53:38.128Z,32.47
2022-11-15T20:56:09.804Z,30.40
2022-11-15T20:58:39.430Z,33.42
2022-11-15T21:01:09.002Z,29.50
2022-11-15T21:03:36.866Z,28.13
2022-11-15T21:06:04.917Z,26.65
2022-11-15T21:08:33.579Z,30.27
2022-11-15T21:11:02.402Z,33.45
2022-11-15T21:13:30.677Z,29.92
2022-11-15T21:16:03.410Z,27.02
2022-11-15T21:18:34.951Z,32.13
2022-11-15T21:21:03.922Z,30.80
2022-11-15T21:23:32.988Z,29.73
2022-11-15T21:26:01.764Z,31.83
2022-11-15T21:28:29.624Z,27.40
2022-11-15T21:31:00.372Z,27.80
2022-11-15T21:33:31.801Z,31.13
2022-11-15T21:35:59.331Z,32.97
2022-11-15T21:38:28.994Z,33.28
2022-11-15T21:40:57.513Z,33.80
2022-11-15T21:43:25.061Z,32.03
2022-11-15T21:45:56.646Z,37.35
2022-11-15T21:48:24.653Z,38.67
2022-11-15T21:50:58.355Z,42.45
2022-11-15T21:53:28.939Z,50.85
2022-11-15T21:55:56.508Z,47.30
2022-11-15T21:58:24.449Z,42.00
2022-11-15T22:00:55.026Z,36.35
2022-11-15T22:03:22.605Z,41.10
2022-11-15T22:05:51.017Z,53.25
2022-11-15T22:08:20.953Z,48.88
2022-11-15T22:10:50.720Z,46.38
2022-11-15T22:13:19.318Z,37.45
2022-11-15T22:15:48.616Z,40.28
2022-11-15T22:18:16.719Z,33.80
2022-11-15T22:20:53.361Z,33.13
2022-11-15T22:23:22.925Z,27.83
2022-11-15T22:25:50.757Z,27.92
2022-11-15T22:28:20.356Z,22.10
2022-11-15T22:30:50.191Z,19.67
2022-11-15T22:33:19.448Z,23.73
2022-11-15T22:35:48.805Z,20.30
2022-11-15T22:38:17.519Z,20.65
2022-11-15T22:40:46.905Z,19.77
2022-11-15T22:43:23.363Z,21.10
2022-11-15T22:45:55.117Z,22.80
2022-11-15T22:48:26.111Z,21.67
2022-11-15T22:50:54.500Z,22.17
2022-11-15T22:53:22.830Z,20.40
2022-11-15T22:55:53.914Z,17.95
2022-11-15T22:58:22.833Z,22.63
2022-11-15T23:00:51.443Z,20.75
2022-11-15T23:03:23.251Z,19.98
2022-11-15T23:05:51.822Z,23.10
2022-11-15T23:08:20.014Z,26.30
2022-11-15T23:10:49.685Z,23.88
2022-11-15T23:13:18.941Z,23.00
2022-11-15T23:16:08.939Z,24.17
2022-11-15T23:18:40.740Z,25.95
2022-11-15T23:21:10.465Z,24.08
2022-11-15T23:23:39.058Z,31.10
2022-11-15T23:26:07.756Z,22.88
2022-11-15T23:28:37.352Z,25.92
2022-11-15T23:31:06.415Z,26.95
2022-11-15T23:33:35.190Z,25.23
2022-11-15T23:36:03.634Z,26.42
2022-11-15T23:38:33.628Z,26.42
2022-11-15T23:41:01.711Z,31.38
2022-11-15T23:43:56.299Z,27.08
2022-11-15T23:46:23.976Z,26.13
2022-11-15T23:48:52.567Z,25.52
2022-11-15T23:51:24.061Z,26.05
2022-11-15T23:53:52.247Z,26.65
2022-11-15T23:56:20.730Z,24.55
